sensor_id;sensor_type;location;lat;lon;timestamp;temperature;humidity
10062;DHT22;5070;52.382;5.270;2023-05-10T00:01:32;20.80;91.60
10062;DHT22;5070;52.382;5.270;2023-05-10T00:04:00;20.80;91.60
10062;DHT22;5070;52.382;5.270;2023-05-10T00:06:28;20.80;91.60
10062;DHT22;5070;52.382;5.270;2023-05-10T00:08:59;20.80;91.90
10062;DHT22;5070;52.382;5.270;2023-05-10T00:11:27;20.80;91.60
10062;DHT22;5070;52.382;5.270;2023-05-10T00:13:55;20.80;91.60
10062;DHT22;5070;52.382;5.270;2023-05-10T00:16:24;20.70;91.50
10062;DHT22;5070;52.382;5.270;2023-05-10T00:18:52;20.70;91.50
10062;DHT22;5070;52.382;5.270;2023-05-10T00:21:21;20.70;91.50
10062;DHT22;5070;52.382;5.270;2023-05-10T00:23:49;20.80;91.50
10062;DHT22;5070;52.382;5.270;2023-05-10T00:26:16;20.80;91.50
10062;DHT22;5070;52.382;5.270;2023-05-10T00:28:50;20.70;91.50
10062;DHT22;5070;52.382;5.270;2023-05-10T00:31:18;20.70;91.40
10062;DHT22;5070;52.382;5.270;2023-05-10T00:33:48;20.70;91.40
10062;DHT22;5070;52.382;5.270;2023-05-10T00:36:16;20.70;91.50
10062;DHT22;5070;52.382;5.270;2023-05-10T00:38:44;20.70;91.40
10062;DHT22;5070;52.382;5.270;2023-05-10T00:41:12;20.70;91.40
10062;DHT22;5070;52.382;5.270;2023-05-10T00:43:40;20.70;91.40
10062;DHT22;5070;52.382;5.270;2023-05-10T00:46:09;20.70;91.40
10062;DHT22;5070;52.382;5.270;2023-05-10T00:48:37;20.70;91.30
10062;DHT22;5070;52.382;5.270;2023-05-10T00:51:07;20.70;91.30
10062;DHT22;5070;52.382;5.270;2023-05-10T00:53:35;20.70;91.30
10062;DHT22;5070;52.382;5.270;2023-05-10T00:56:03;20.70;91.30
10062;DHT22;5070;52.382;5.270;2023-05-10T00:58:32;20.70;91.30
10062;DHT22;5070;52.382;5.270;2023-05-10T01:01:00;20.70;91.30
10062;DHT22;5070;52.382;5.270;2023-05-10T01:03:29;20.70;91.30
10062;DHT22;5070;52.382;5.270;2023-05-10T01:05:57;20.70;91.30
10062;DHT22;5070;52.382;5.270;2023-05-10T01:08:27;20.70;91.30
10062;DHT22;5070;52.382;5.270;2023-05-10T01:10:55;20.70;91.30
10062;DHT22;5070;52.382;5.270;2023-05-10T01:13:31;20.70;91.30
10062;DHT22;5070;52.382;5.270;2023-05-10T01:16:00;20.70;91.30
10062;DHT22;5070;52.382;5.270;2023-05-10T01:18:30;20.70;91.30
10062;DHT22;5070;52.382;5.270;2023-05-10T01:21:12;20.70;91.20
10062;DHT22;5070;52.382;5.270;2023-05-10T01:27:11;20.70;91.20
10062;DHT22;5070;52.382;5.270;2023-05-10T01:32:48;20.60;91.20
10062;DHT22;5070;52.382;5.270;2023-05-10T01:35:22;20.60;91.20
10062;DHT22;5070;52.382;5.270;2023-05-10T01:38:04;20.60;91.20
10062;DHT22;5070;52.382;5.270;2023-05-10T01:40:41;20.60;91.20
10062;DHT22;5070;52.382;5.270;2023-05-10T01:43:14;20.60;91.20
10062;DHT22;5070;52.382;5.270;2023-05-10T01:45:50;20.60;91.10
10062;DHT22;5070;52.382;5.270;2023-05-10T01:48:23;20.60;91.10
10062;DHT22;5070;52.382;5.270;2023-05-10T01:50:52;20.60;91.10
10062;DHT22;5070;52.382;5.270;2023-05-10T01:53:21;20.60;91.40
10062;DHT22;5070;52.382;5.270;2023-05-10T01:55:52;20.60;91.10
10062;DHT22;5070;52.382;5.270;2023-05-10T01:58:24;20.60;91.10
10062;DHT22;5070;52.382;5.270;2023-05-10T02:00:55;20.60;91.10
10062;DHT22;5070;52.382;5.270;2023-05-10T02:03:25;20.60;91.00
10062;DHT22;5070;52.382;5.270;2023-05-10T02:05:56;20.60;91.10
10062;DHT22;5070;52.382;5.270;2023-05-10T02:08:25;20.60;91.00
10062;DHT22;5070;52.382;5.270;2023-05-10T02:10:56;20.60;91.00
10062;DHT22;5070;52.382;5.270;2023-05-10T02:13:24;20.60;91.00
10062;DHT22;5070;52.382;5.270;2023-05-10T02:15:54;20.60;91.00
10062;DHT22;5070;52.382;5.270;2023-05-10T02:18:25;20.60;91.00
10062;DHT22;5070;52.382;5.270;2023-05-10T02:20:55;20.60;91.00
10062;DHT22;5070;52.382;5.270;2023-05-10T02:23:25;20.60;91.00
10062;DHT22;5070;52.382;5.270;2023-05-10T02:25:54;20.60;91.00
10062;DHT22;5070;52.382;5.270;2023-05-10T02:28:23;20.60;91.00
10062;DHT22;5070;52.382;5.270;2023-05-10T02:30:52;20.60;90.90
10062;DHT22;5070;52.382;5.270;2023-05-10T02:33:21;20.60;90.90
10062;DHT22;5070;52.382;5.270;2023-05-10T02:35:53;20.50;90.90
10062;DHT22;5070;52.382;5.270;2023-05-10T02:38:22;20.60;90.90
10062;DHT22;5070;52.382;5.270;2023-05-10T02:40:52;20.50;90.90
10062;DHT22;5070;52.382;5.270;2023-05-10T02:43:23;20.50;90.90
10062;DHT22;5070;52.382;5.270;2023-05-10T02:45:52;20.50;90.90
10062;DHT22;5070;52.382;5.270;2023-05-10T02:48:20;20.50;90.80
10062;DHT22;5070;52.382;5.270;2023-05-10T02:50:50;20.50;90.80
10062;DHT22;5070;52.382;5.270;2023-05-10T02:53:23;20.50;90.80
10062;DHT22;5070;52.382;5.270;2023-05-10T02:55:59;20.50;90.80
10062;DHT22;5070;52.382;5.270;2023-05-10T02:58:28;20.50;90.80
10062;DHT22;5070;52.382;5.270;2023-05-10T03:00:56;20.50;90.80
10062;DHT22;5070;52.382;5.270;2023-05-10T03:03:24;20.50;90.80
10062;DHT22;5070;52.382;5.270;2023-05-10T03:05:52;20.50;90.80
10062;DHT22;5070;52.382;5.270;2023-05-10T03:08:24;20.50;90.80
10062;DHT22;5070;52.382;5.270;2023-05-10T03:11:05;20.50;90.80
10062;DHT22;5070;52.382;5.270;2023-05-10T03:13:44;20.50;90.80
10062;DHT22;5070;52.382;5.270;2023-05-10T03:16:16;20.50;90.70
10062;DHT22;5070;52.382;5.270;2023-05-10T03:18:48;20.50;90.80
10062;DHT22;5070;52.382;5.270;2023-05-10T03:21:22;20.50;90.80
10062;DHT22;5070;52.382;5.270;2023-05-10T03:23:59;20.50;90.80
10062;DHT22;5070;52.382;5.270;2023-05-10T03:26:27;20.50;90.70
10062;DHT22;5070;52.382;5.270;2023-05-10T03:29:10;20.50;90.70
10062;DHT22;5070;52.382;5.270;2023-05-10T03:31:39;20.50;90.70
10062;DHT22;5070;52.382;5.270;2023-05-10T03:34:07;20.50;90.70
10062;DHT22;5070;52.382;5.270;2023-05-10T03:36:35;20.40;90.60
10062;DHT22;5070;52.382;5.270;2023-05-10T03:39:04;20.40;90.60
10062;DHT22;5070;52.382;5.270;2023-05-10T03:41:33;20.40;90.60
10062;DHT22;5070;52.382;5.270;2023-05-10T03:44:01;20.40;90.60
10062;DHT22;5070;52.382;5.270;2023-05-10T03:46:29;20.40;90.60
10062;DHT22;5070;52.382;5.270;2023-05-10T03:48:57;20.40;90.60
10062;DHT22;5070;52.382;5.270;2023-05-10T03:51:25;20.40;90.60
10062;DHT22;5070;52.382;5.270;2023-05-10T03:53:54;20.40;90.60
10062;DHT22;5070;52.382;5.270;2023-05-10T03:56:27;20.40;90.50
10062;DHT22;5070;52.382;5.270;2023-05-10T03:58:55;20.40;90.60
10062;DHT22;5070;52.382;5.270;2023-05-10T04:01:22;20.40;90.50
10062;DHT22;5070;52.382;5.270;2023-05-10T04:03:50;20.40;90.60
10062;DHT22;5070;52.382;5.270;2023-05-10T04:06:19;20.40;90.50
10062;DHT22;5070;52.382;5.270;2023-05-10T04:08:47;20.40;90.60
10062;DHT22;5070;52.382;5.270;2023-05-10T04:11:14;20.40;90.50
10062;DHT22;5070;52.382;5.270;2023-05-10T04:13:44;20.40;90.60
10062;DHT22;5070;52.382;5.270;2023-05-10T04:16:12;20.40;90.50
10062;DHT22;5070;52.382;5.270;2023-05-10T04:18:40;20.40;90.50
10062;DHT22;5070;52.382;5.270;2023-05-10T04:21:11;20.40;90.50
10062;DHT22;5070;52.382;5.270;2023-05-10T04:23:40;20.40;90.50
10062;DHT22;5070;52.382;5.270;2023-05-10T04:26:08;20.40;90.90
10062;DHT22;5070;52.382;5.270;2023-05-10T04:28:36;20.40;90.50
10062;DHT22;5070;52.382;5.270;2023-05-10T04:31:09;20.40;90.60
10062;DHT22;5070;52.382;5.270;2023-05-10T04:33:38;20.40;90.60
10062;DHT22;5070;52.382;5.270;2023-05-10T04:36:06;20.40;90.60
10062;DHT22;5070;52.382;5.270;2023-05-10T04:38:34;20.40;90.60
10062;DHT22;5070;52.382;5.270;2023-05-10T04:41:06;20.40;90.70
10062;DHT22;5070;52.382;5.270;2023-05-10T04:43:34;20.40;90.70
10062;DHT22;5070;52.382;5.270;2023-05-10T04:46:03;20.40;90.70
10062;DHT22;5070;52.382;5.270;2023-05-10T04:48:32;20.40;90.80
10062;DHT22;5070;52.382;5.270;2023-05-10T04:51:00;20.40;90.80
10062;DHT22;5070;52.382;5.270;2023-05-10T04:53:30;20.40;90.80
10062;DHT22;5070;52.382;5.270;2023-05-10T04:55:58;20.40;90.80
10062;DHT22;5070;52.382;5.270;2023-05-10T04:58:26;20.40;90.80
10062;DHT22;5070;52.382;5.270;2023-05-10T05:00:54;20.40;90.70
10062;DHT22;5070;52.382;5.270;2023-05-10T05:03:23;20.40;90.80
10062;DHT22;5070;52.382;5.270;2023-05-10T05:05:52;20.40;90.80
10062;DHT22;5070;52.382;5.270;2023-05-10T05:08:20;20.50;90.90
10062;DHT22;5070;52.382;5.270;2023-05-10T05:10:50;20.40;90.90
10062;DHT22;5070;52.382;5.270;2023-05-10T05:13:18;20.50;91.00
10062;DHT22;5070;52.382;5.270;2023-05-10T05:15:46;20.50;91.10
10062;DHT22;5070;52.382;5.270;2023-05-10T05:18:14;20.50;91.20
10062;DHT22;5070;52.382;5.270;2023-05-10T05:20:41;20.50;91.30
10062;DHT22;5070;52.382;5.270;2023-05-10T05:23:11;20.50;91.40
10062;DHT22;5070;52.382;5.270;2023-05-10T05:25:39;20.50;91.50
10062;DHT22;5070;52.382;5.270;2023-05-10T05:28:07;20.60;91.30
10062;DHT22;5070;52.382;5.270;2023-05-10T05:30:34;20.60;91.30
10062;DHT22;5070;52.382;5.270;2023-05-10T05:33:04;20.60;91.60
10062;DHT22;5070;52.382;5.270;2023-05-10T05:35:33;20.60;91.70
10062;DHT22;5070;52.382;5.270;2023-05-10T05:38:01;20.60;91.80
10062;DHT22;5070;52.382;5.270;2023-05-10T05:40:30;20.60;91.80
10062;DHT22;5070;52.382;5.270;2023-05-10T05:42:58;20.60;91.80
10062;DHT22;5070;52.382;5.270;2023-05-10T05:45:26;20.60;91.80
10062;DHT22;5070;52.382;5.270;2023-05-10T05:47:54;20.60;91.70
10062;DHT22;5070;52.382;5.270;2023-05-10T05:50:22;20.60;91.70
10062;DHT22;5070;52.382;5.270;2023-05-10T05:52:54;20.60;91.70
10062;DHT22;5070;52.382;5.270;2023-05-10T05:55:21;20.60;91.70
10062;DHT22;5070;52.382;5.270;2023-05-10T05:57:52;20.70;91.40
10062;DHT22;5070;52.382;5.270;2023-05-10T06:00:20;20.70;91.60
10062;DHT22;5070;52.382;5.270;2023-05-10T06:02:49;20.70;91.50
10062;DHT22;5070;52.382;5.270;2023-05-10T06:05:17;20.70;91.30
10062;DHT22;5070;52.382;5.270;2023-05-10T06:07:45;20.70;91.20
10062;DHT22;5070;52.382;5.270;2023-05-10T06:10:13;20.70;91.10
10062;DHT22;5070;52.382;5.270;2023-05-10T06:12:41;20.70;91.00
10062;DHT22;5070;52.382;5.270;2023-05-10T06:15:11;20.70;91.40
10062;DHT22;5070;52.382;5.270;2023-05-10T06:17:40;20.70;91.10
10062;DHT22;5070;52.382;5.270;2023-05-10T06:20:08;20.70;90.90
10062;DHT22;5070;52.382;5.270;2023-05-10T06:22:36;20.70;91.10
10062;DHT22;5070;52.382;5.270;2023-05-10T06:25:05;20.70;91.20
10062;DHT22;5070;52.382;5.270;2023-05-10T06:27:33;20.70;91.10
10062;DHT22;5070;52.382;5.270;2023-05-10T06:30:01;20.70;91.10
10062;DHT22;5070;52.382;5.270;2023-05-10T06:32:40;20.70;91.10
10062;DHT22;5070;52.382;5.270;2023-05-10T06:35:08;20.70;91.00
10062;DHT22;5070;52.382;5.270;2023-05-10T06:37:36;20.70;91.10
10062;DHT22;5070;52.382;5.270;2023-05-10T06:40:07;20.70;91.00
10062;DHT22;5070;52.382;5.270;2023-05-10T06:42:35;20.70;90.90
10062;DHT22;5070;52.382;5.270;2023-05-10T06:45:05;20.70;90.90
10062;DHT22;5070;52.382;5.270;2023-05-10T06:47:33;20.70;90.90
10062;DHT22;5070;52.382;5.270;2023-05-10T06:50:07;20.70;90.90
10062;DHT22;5070;52.382;5.270;2023-05-10T06:52:35;20.70;90.90
10062;DHT22;5070;52.382;5.270;2023-05-10T06:55:03;20.70;90.80
10062;DHT22;5070;52.382;5.270;2023-05-10T06:57:32;20.70;91.00
10062;DHT22;5070;52.382;5.270;2023-05-10T07:00:00;20.70;91.00
10062;DHT22;5070;52.382;5.270;2023-05-10T07:02:28;20.70;91.00
10062;DHT22;5070;52.382;5.270;2023-05-10T07:04:56;20.70;91.00
10062;DHT22;5070;52.382;5.270;2023-05-10T07:07:30;20.70;91.00
10062;DHT22;5070;52.382;5.270;2023-05-10T07:10:01;20.70;91.00
10062;DHT22;5070;52.382;5.270;2023-05-10T07:12:29;20.70;91.00
10062;DHT22;5070;52.382;5.270;2023-05-10T07:14:59;20.70;91.00
10062;DHT22;5070;52.382;5.270;2023-05-10T07:17:27;20.70;91.00
10062;DHT22;5070;52.382;5.270;2023-05-10T07:19:55;20.70;91.00
10062;DHT22;5070;52.382;5.270;2023-05-10T07:22:22;20.70;91.00
10062;DHT22;5070;52.382;5.270;2023-05-10T07:24:54;20.70;91.00
10062;DHT22;5070;52.382;5.270;2023-05-10T07:27:22;20.70;91.00
10062;DHT22;5070;52.382;5.270;2023-05-10T07:29:50;20.70;91.10
10062;DHT22;5070;52.382;5.270;2023-05-10T07:32:18;20.70;91.00
10062;DHT22;5070;52.382;5.270;2023-05-10T07:34:46;20.70;90.90
10062;DHT22;5070;52.382;5.270;2023-05-10T07:37:14;20.70;90.90
10062;DHT22;5070;52.382;5.270;2023-05-10T07:39:42;20.70;90.90
10062;DHT22;5070;52.382;5.270;2023-05-10T07:42:12;20.70;90.90
10062;DHT22;5070;52.382;5.270;2023-05-10T07:44:39;20.70;90.90
10062;DHT22;5070;52.382;5.270;2023-05-10T07:47:08;20.70;90.80
10062;DHT22;5070;52.382;5.270;2023-05-10T07:49:36;20.70;90.70
10062;DHT22;5070;52.382;5.270;2023-05-10T07:52:04;20.70;90.80
10062;DHT22;5070;52.382;5.270;2023-05-10T07:54:32;20.70;90.70
10062;DHT22;5070;52.382;5.270;2023-05-10T07:57:00;20.70;90.70
10062;DHT22;5070;52.382;5.270;2023-05-10T07:59:30;20.70;90.80
10062;DHT22;5070;52.382;5.270;2023-05-10T08:02:00;20.70;90.80
10062;DHT22;5070;52.382;5.270;2023-05-10T08:04:28;20.70;90.80
10062;DHT22;5070;52.382;5.270;2023-05-10T08:06:56;20.70;90.80
10062;DHT22;5070;52.382;5.270;2023-05-10T08:09:24;20.70;90.80
10062;DHT22;5070;52.382;5.270;2023-05-10T08:11:52;20.70;90.80
10062;DHT22;5070;52.382;5.270;2023-05-10T08:14:20;20.70;90.80
10062;DHT22;5070;52.382;5.270;2023-05-10T08:16:49;20.70;90.70
10062;DHT22;5070;52.382;5.270;2023-05-10T08:19:17;20.70;90.80
10062;DHT22;5070;52.382;5.270;2023-05-10T08:21:47;20.70;90.90
10062;DHT22;5070;52.382;5.270;2023-05-10T08:24:15;20.70;91.00
10062;DHT22;5070;52.382;5.270;2023-05-10T08:26:43;20.70;91.40
10062;DHT22;5070;52.382;5.270;2023-05-10T08:29:11;20.70;91.80
10062;DHT22;5070;52.382;5.270;2023-05-10T08:31:39;20.70;92.00
10062;DHT22;5070;52.382;5.270;2023-05-10T08:34:08;20.70;92.10
10062;DHT22;5070;52.382;5.270;2023-05-10T08:36:36;20.70;92.10
10062;DHT22;5070;52.382;5.270;2023-05-10T08:39:04;20.70;92.20
10062;DHT22;5070;52.382;5.270;2023-05-10T08:41:46;20.70;92.40
10062;DHT22;5070;52.382;5.270;2023-05-10T08:44:15;20.70;92.30
10062;DHT22;5070;52.382;5.270;2023-05-10T08:46:46;20.80;92.40
10062;DHT22;5070;52.382;5.270;2023-05-10T08:49:17;20.80;92.40
10062;DHT22;5070;52.382;5.270;2023-05-10T08:51:50;20.80;92.40
10062;DHT22;5070;52.382;5.270;2023-05-10T08:54:19;20.80;92.40
10062;DHT22;5070;52.382;5.270;2023-05-10T08:56:47;20.80;92.40
10062;DHT22;5070;52.382;5.270;2023-05-10T08:59:15;20.80;92.40
10062;DHT22;5070;52.382;5.270;2023-05-10T09:01:44;20.80;92.40
10062;DHT22;5070;52.382;5.270;2023-05-10T09:04:16;20.80;92.40
10062;DHT22;5070;52.382;5.270;2023-05-10T09:06:44;20.80;92.50
10062;DHT22;5070;52.382;5.270;2023-05-10T09:09:12;20.80;92.50
10062;DHT22;5070;52.382;5.270;2023-05-10T09:11:41;20.80;92.50
10062;DHT22;5070;52.382;5.270;2023-05-10T09:14:09;20.80;92.50
10062;DHT22;5070;52.382;5.270;2023-05-10T09:16:37;20.80;92.40
10062;DHT22;5070;52.382;5.270;2023-05-10T09:19:06;20.80;92.40
10062;DHT22;5070;52.382;5.270;2023-05-10T09:21:37;20.80;92.60
10062;DHT22;5070;52.382;5.270;2023-05-10T09:24:06;20.80;92.50
10062;DHT22;5070;52.382;5.270;2023-05-10T09:26:34;20.80;92.50
10062;DHT22;5070;52.382;5.270;2023-05-10T09:29:03;20.80;92.50
10062;DHT22;5070;52.382;5.270;2023-05-10T09:31:45;20.80;92.50
10062;DHT22;5070;52.382;5.270;2023-05-10T09:34:18;20.90;92.50
10062;DHT22;5070;52.382;5.270;2023-05-10T09:36:54;20.90;92.60
10062;DHT22;5070;52.382;5.270;2023-05-10T09:39:30;20.90;92.50
10062;DHT22;5070;52.382;5.270;2023-05-10T09:42:01;20.90;92.40
10062;DHT22;5070;52.382;5.270;2023-05-10T09:44:31;20.90;92.60
10062;DHT22;5070;52.382;5.270;2023-05-10T09:47:00;20.90;92.60
10062;DHT22;5070;52.382;5.270;2023-05-10T09:49:31;20.90;92.40
10062;DHT22;5070;52.382;5.270;2023-05-10T09:52:03;20.90;92.40
10062;DHT22;5070;52.382;5.270;2023-05-10T09:54:31;20.90;92.30
10062;DHT22;5070;52.382;5.270;2023-05-10T09:57:00;20.90;92.40
10062;DHT22;5070;52.382;5.270;2023-05-10T09:59:28;20.90;92.50
10062;DHT22;5070;52.382;5.270;2023-05-10T10:01:57;20.90;92.30
10062;DHT22;5070;52.382;5.270;2023-05-10T10:04:27;20.90;92.00
10062;DHT22;5070;52.382;5.270;2023-05-10T10:07:01;20.90;92.00
10062;DHT22;5070;52.382;5.270;2023-05-10T10:09:29;20.90;92.00
10062;DHT22;5070;52.382;5.270;2023-05-10T10:11:58;20.90;92.00
10062;DHT22;5070;52.382;5.270;2023-05-10T10:14:26;20.90;92.10
10062;DHT22;5070;52.382;5.270;2023-05-10T10:16:54;20.90;92.00
10062;DHT22;5070;52.382;5.270;2023-05-10T10:19:35;20.90;92.00
10062;DHT22;5070;52.382;5.270;2023-05-10T10:22:05;20.90;91.80
10062;DHT22;5070;52.382;5.270;2023-05-10T10:24:33;20.90;91.90
10062;DHT22;5070;52.382;5.270;2023-05-10T10:27:07;20.90;92.10
10062;DHT22;5070;52.382;5.270;2023-05-10T10:29:41;20.90;92.20
10062;DHT22;5070;52.382;5.270;2023-05-10T10:32:20;20.90;92.20
10062;DHT22;5070;52.382;5.270;2023-05-10T10:34:49;20.90;92.00
10062;DHT22;5070;52.382;5.270;2023-05-10T10:37:19;20.90;92.10
10062;DHT22;5070;52.382;5.270;2023-05-10T10:39:48;20.90;92.10
10062;DHT22;5070;52.382;5.270;2023-05-10T10:45:23;20.90;92.50
10062;DHT22;5070;52.382;5.270;2023-05-10T10:48:22;20.90;92.10
10062;DHT22;5070;52.382;5.270;2023-05-10T10:50:56;20.90;92.10
10062;DHT22;5070;52.382;5.270;2023-05-10T10:53:27;20.90;92.20
10062;DHT22;5070;52.382;5.270;2023-05-10T10:56:06;21.00;92.20
10062;DHT22;5070;52.382;5.270;2023-05-10T10:58:36;21.00;92.20
10062;DHT22;5070;52.382;5.270;2023-05-10T11:01:12;21.00;92.20
10062;DHT22;5070;52.382;5.270;2023-05-10T11:03:56;21.00;92.00
10062;DHT22;5070;52.382;5.270;2023-05-10T11:06:42;21.00;92.10
10062;DHT22;5070;52.382;5.270;2023-05-10T11:09:12;21.00;92.20
10062;DHT22;5070;52.382;5.270;2023-05-10T11:11:51;21.00;92.20
10062;DHT22;5070;52.382;5.270;2023-05-10T11:14:21;21.00;92.20
10062;DHT22;5070;52.382;5.270;2023-05-10T11:16:50;21.00;92.30
10062;DHT22;5070;52.382;5.270;2023-05-10T11:19:20;21.00;92.00
10062;DHT22;5070;52.382;5.270;2023-05-10T11:21:49;21.00;92.00
10062;DHT22;5070;52.382;5.270;2023-05-10T11:24:20;21.00;92.10
10062;DHT22;5070;52.382;5.270;2023-05-10T11:26:50;21.00;91.80
10062;DHT22;5070;52.382;5.270;2023-05-10T11:29:18;21.00;92.10
10062;DHT22;5070;52.382;5.270;2023-05-10T11:31:47;21.00;92.10
10062;DHT22;5070;52.382;5.270;2023-05-10T11:34:25;21.00;91.80
10062;DHT22;5070;52.382;5.270;2023-05-10T11:36:54;21.00;92.00
10062;DHT22;5070;52.382;5.270;2023-05-10T11:39:27;21.00;91.80
10062;DHT22;5070;52.382;5.270;2023-05-10T11:41:57;21.00;91.80
10062;DHT22;5070;52.382;5.270;2023-05-10T11:44:29;21.00;91.80
10062;DHT22;5070;52.382;5.270;2023-05-10T11:46:58;21.00;92.00
10062;DHT22;5070;52.382;5.270;2023-05-10T11:49:27;21.00;91.80
10062;DHT22;5070;52.382;5.270;2023-05-10T11:52:03;21.00;92.00
10062;DHT22;5070;52.382;5.270;2023-05-10T11:54:33;21.00;92.10
10062;DHT22;5070;52.382;5.270;2023-05-10T11:57:01;21.00;92.40
10062;DHT22;5070;52.382;5.270;2023-05-10T11:59:29;21.00;92.30
10062;DHT22;5070;52.382;5.270;2023-05-10T12:01:58;21.00;92.50
10062;DHT22;5070;52.382;5.270;2023-05-10T12:04:26;21.00;92.50
10062;DHT22;5070;52.382;5.270;2023-05-10T12:06:56;21.00;91.90
10062;DHT22;5070;52.382;5.270;2023-05-10T12:09:24;21.00;92.10
10062;DHT22;5070;52.382;5.270;2023-05-10T12:12:10;21.00;92.30
10062;DHT22;5070;52.382;5.270;2023-05-10T12:14:38;21.00;92.50
10062;DHT22;5070;52.382;5.270;2023-05-10T12:17:11;21.00;92.60
10062;DHT22;5070;52.382;5.270;2023-05-10T12:19:45;21.00;92.50
10062;DHT22;5070;52.382;5.270;2023-05-10T12:22:13;21.00;92.60
10062;DHT22;5070;52.382;5.270;2023-05-10T12:24:41;21.00;92.70
10062;DHT22;5070;52.382;5.270;2023-05-10T12:27:11;21.00;92.80
10062;DHT22;5070;52.382;5.270;2023-05-10T12:29:41;21.00;92.80
10062;DHT22;5070;52.382;5.270;2023-05-10T12:32:11;21.00;92.90
10062;DHT22;5070;52.382;5.270;2023-05-10T12:34:39;21.00;92.90
10062;DHT22;5070;52.382;5.270;2023-05-10T12:37:07;21.00;92.90
10062;DHT22;5070;52.382;5.270;2023-05-10T12:39:39;21.00;92.70
10062;DHT22;5070;52.382;5.270;2023-05-10T12:42:08;21.00;92.80
10062;DHT22;5070;52.382;5.270;2023-05-10T12:44:37;21.00;92.60
10062;DHT22;5070;52.382;5.270;2023-05-10T12:47:05;21.10;92.70
10062;DHT22;5070;52.382;5.270;2023-05-10T12:49:33;21.00;92.80
10062;DHT22;5070;52.382;5.270;2023-05-10T12:52:01;21.10;92.60
10062;DHT22;5070;52.382;5.270;2023-05-10T12:54:29;21.10;92.80
10062;DHT22;5070;52.382;5.270;2023-05-10T12:56:57;21.10;93.00
10062;DHT22;5070;52.382;5.270;2023-05-10T12:59:25;21.10;93.00
10062;DHT22;5070;52.382;5.270;2023-05-10T13:01:54;21.10;93.00
10062;DHT22;5070;52.382;5.270;2023-05-10T13:04:22;21.10;92.70
10062;DHT22;5070;52.382;5.270;2023-05-10T13:06:50;21.20;92.80
10062;DHT22;5070;52.382;5.270;2023-05-10T13:09:18;21.10;92.70
10062;DHT22;5070;52.382;5.270;2023-05-10T13:11:47;21.20;92.40
10062;DHT22;5070;52.382;5.270;2023-05-10T13:14:15;21.20;92.40
10062;DHT22;5070;52.382;5.270;2023-05-10T13:16:43;21.20;92.30
10062;DHT22;5070;52.382;5.270;2023-05-10T13:19:12;21.20;92.10
10062;DHT22;5070;52.382;5.270;2023-05-10T13:21:40;21.20;92.50
10062;DHT22;5070;52.382;5.270;2023-05-10T13:24:11;21.20;92.60
10062;DHT22;5070;52.382;5.270;2023-05-10T13:26:40;21.20;92.80
10062;DHT22;5070;52.382;5.270;2023-05-10T13:29:08;21.20;93.00
10062;DHT22;5070;52.382;5.270;2023-05-10T13:31:36;21.20;93.00
10062;DHT22;5070;52.382;5.270;2023-05-10T13:34:05;21.20;92.90
10062;DHT22;5070;52.382;5.270;2023-05-10T13:36:37;21.20;93.00
10062;DHT22;5070;52.382;5.270;2023-05-10T13:39:05;21.20;92.90
10062;DHT22;5070;52.382;5.270;2023-05-10T13:41:35;21.20;92.90
10062;DHT22;5070;52.382;5.270;2023-05-10T13:44:03;21.20;92.90
10062;DHT22;5070;52.382;5.270;2023-05-10T13:46:31;21.20;92.90
10062;DHT22;5070;52.382;5.270;2023-05-10T13:49:02;21.20;92.80
10062;DHT22;5070;52.382;5.270;2023-05-10T13:51:30;21.20;92.90
10062;DHT22;5070;52.382;5.270;2023-05-10T13:54:00;21.20;92.80
10062;DHT22;5070;52.382;5.270;2023-05-10T13:56:30;21.20;92.70
10062;DHT22;5070;52.382;5.270;2023-05-10T13:59:00;21.20;92.70
10062;DHT22;5070;52.382;5.270;2023-05-10T14:01:30;21.20;92.60
10062;DHT22;5070;52.382;5.270;2023-05-10T14:03:59;21.20;92.70
10062;DHT22;5070;52.382;5.270;2023-05-10T14:06:27;21.20;92.60
10062;DHT22;5070;52.382;5.270;2023-05-10T14:08:55;21.20;92.70
10062;DHT22;5070;52.382;5.270;2023-05-10T14:11:24;21.20;92.70
10062;DHT22;5070;52.382;5.270;2023-05-10T14:13:58;21.20;92.70
10062;DHT22;5070;52.382;5.270;2023-05-10T14:16:25;21.20;92.70
10062;DHT22;5070;52.382;5.270;2023-05-10T14:18:54;21.20;92.80
10062;DHT22;5070;52.382;5.270;2023-05-10T14:21:22;21.20;92.80
10062;DHT22;5070;52.382;5.270;2023-05-10T14:23:51;21.20;92.90
10062;DHT22;5070;52.382;5.270;2023-05-10T14:26:21;21.20;92.80
10062;DHT22;5070;52.382;5.270;2023-05-10T14:28:50;21.20;92.80
10062;DHT22;5070;52.382;5.270;2023-05-10T14:31:23;21.20;92.70
10062;DHT22;5070;52.382;5.270;2023-05-10T14:33:52;21.20;92.70
10062;DHT22;5070;52.382;5.270;2023-05-10T14:36:20;21.20;92.70
10062;DHT22;5070;52.382;5.270;2023-05-10T14:38:49;21.20;92.50
10062;DHT22;5070;52.382;5.270;2023-05-10T14:41:17;21.20;92.70
10062;DHT22;5070;52.382;5.270;2023-05-10T14:43:45;21.20;92.30
10062;DHT22;5070;52.382;5.270;2023-05-10T14:46:17;21.20;92.60
10062;DHT22;5070;52.382;5.270;2023-05-10T14:48:45;21.20;91.80
10062;DHT22;5070;52.382;5.270;2023-05-10T14:51:13;21.20;92.00
10062;DHT22;5070;52.382;5.270;2023-05-10T14:53:42;21.20;92.40
10062;DHT22;5070;52.382;5.270;2023-05-10T14:56:09;21.20;92.60
10062;DHT22;5070;52.382;5.270;2023-05-10T14:58:37;21.20;92.30
10062;DHT22;5070;52.382;5.270;2023-05-10T15:01:05;21.20;92.40
10062;DHT22;5070;52.382;5.270;2023-05-10T15:03:35;21.20;92.50
10062;DHT22;5070;52.382;5.270;2023-05-10T15:06:04;21.20;92.10
10062;DHT22;5070;52.382;5.270;2023-05-10T15:08:32;21.20;92.00
10062;DHT22;5070;52.382;5.270;2023-05-10T15:11:00;21.20;92.40
10062;DHT22;5070;52.382;5.270;2023-05-10T15:13:29;21.20;92.30
10062;DHT22;5070;52.382;5.270;2023-05-10T15:15:57;21.20;92.20
10062;DHT22;5070;52.382;5.270;2023-05-10T15:18:25;21.20;92.30
10062;DHT22;5070;52.382;5.270;2023-05-10T15:20:54;21.20;92.40
10062;DHT22;5070;52.382;5.270;2023-05-10T15:23:22;21.20;92.60
10062;DHT22;5070;52.382;5.270;2023-05-10T15:25:52;21.20;92.80
10062;DHT22;5070;52.382;5.270;2023-05-10T15:28:25;21.20;92.70
10062;DHT22;5070;52.382;5.270;2023-05-10T15:30:53;21.20;92.70
10062;DHT22;5070;52.382;5.270;2023-05-10T15:33:20;21.20;92.40
10062;DHT22;5070;52.382;5.270;2023-05-10T15:35:49;21.30;92.40
10062;DHT22;5070;52.382;5.270;2023-05-10T15:38:18;21.20;92.60
10062;DHT22;5070;52.382;5.270;2023-05-10T15:40:46;21.30;92.80
10062;DHT22;5070;52.382;5.270;2023-05-10T15:43:14;21.30;92.50
10062;DHT22;5070;52.382;5.270;2023-05-10T15:45:42;21.30;92.40
10062;DHT22;5070;52.382;5.270;2023-05-10T15:48:10;21.30;91.90
10062;DHT22;5070;52.382;5.270;2023-05-10T15:50:39;21.30;91.50
10062;DHT22;5070;52.382;5.270;2023-05-10T15:53:08;21.30;91.50
10062;DHT22;5070;52.382;5.270;2023-05-10T15:55:37;21.30;92.10
10062;DHT22;5070;52.382;5.270;2023-05-10T15:58:05;21.30;92.20
10062;DHT22;5070;52.382;5.270;2023-05-10T16:00:59;21.40;92.00
10062;DHT22;5070;52.382;5.270;2023-05-10T16:03:29;21.30;91.80
10062;DHT22;5070;52.382;5.270;2023-05-10T16:05:57;21.40;92.60
10062;DHT22;5070;52.382;5.270;2023-05-10T16:08:26;21.40;92.10
10062;DHT22;5070;52.382;5.270;2023-05-10T16:10:57;21.30;91.80